CheckWX is a tool to help pilots better visualize weather data.  It is not intended as a substitute for an official pre-flight weather briefing.

12:34:37 UTC

RJOO TAF
Osaka International Airport
Osaka, Japan
TAF RJOO 221109Z 2212/2318 32004KT 9999 FEW020 SCT040

Mar-22@
12:00 UTC

Mar-22 @ 12:00 UTC

Mar-23@
18:00 UTC

Mar-23 @ 18:00 UTC

TAF RJOO 221109Z 2212/2318 32004KT 9999 FEW020 SCT040
Wind
  • 320° at 4 KTS
Cloud Levels
  • Few at 2,000' AGL
  • Scattered at 4,000' AGL